Memorial Village's Hourly Summary for Tuesday, July 10, 2018
Hour Temp
(f)
RH
(%)
Solar Rad.
(MJ/m2)
Rainfall
(in)
Wind
(mph)
7/10/2018 12:00 AM 76 92 0 0 0
7/10/2018 1:00 AM 75 95 0 0 0
7/10/2018 2:00 AM 74 96 0 0 0
7/10/2018 3:00 AM 74 97 0 0 0
7/10/2018 4:00 AM 73 97 0 0 0
7/10/2018 5:00 AM 73 98 0 0 0
7/10/2018 6:00 AM 73 98 0.02 0 0
7/10/2018 7:00 AM 74 98 0.15 0 0
7/10/2018 8:00 AM 78 79 0.42 0 0.03
7/10/2018 9:00 AM 84 60 0.87 0 0.51
7/10/2018 10:00 AM 87 51 2.24 0 0.41
7/10/2018 11:00 AM 89 48 2.29 0 0.41
7/10/2018 12:00 PM 91 46 3.05 0 0.4
7/10/2018 1:00 PM 92 42 1.63 0 1.29
7/10/2018 2:00 PM 92 40 2.67 0 0.75
7/10/2018 3:00 PM 91 39 1.05 0 0.67
7/10/2018 4:00 PM 91 50 2.1 0 1.3
7/10/2018 5:00 PM 91 49 1.64 0 0.69
7/10/2018 6:00 PM 90 53 0.66 0 0.68
7/10/2018 7:00 PM 88 53 0.21 0 0.86
7/10/2018 8:00 PM 86 62 0.02 0 0.89
7/10/2018 9:00 PM 84 66 0 0 1.04
7/10/2018 10:00 PM 83 69 0 0 0.75
7/10/2018 11:00 PM 81 76 0 0 0.14
Data Summary 82 68 19.02 0.00 0.45